Terminal Aerodrome Forecast
Issued by NWS Omaha/Valley, NE

Home | Current Version | Previous Version | Text Only | Print | Product List | Glossary On
Versions: 1 2 3 4 5 6 7 8 9 10 11 12 13 14 15 16 17 18 19 20 21 22 23 24 25 26 27 28 29 30 31 32
000
FTUS43 KOAX 102320
TAFLNK
TAF
KLNK 102320Z 1100/1124 VRB04KT P6SM FEW250
     FM110900 27007KT P6SM SCT150 WS020/31038KT
     FM111500 30016G24KT P6SM BKN050
     FM111800 32022G33KT P6SM BKN040=

USA.gov is the U.S. government's official web portal to all federal, state and local government web resources and services.